createdAt,value
2018-10-12T00:00:43.051Z,69.30
2018-10-12T00:03:12.261Z,69.20
2018-10-12T00:05:41.275Z,69.30
2018-10-12T00:08:09.903Z,69.40
2018-10-12T00:10:38.544Z,69.30
2018-10-12T00:13:07.146Z,69.30
2018-10-12T00:15:35.688Z,69.30
2018-10-12T00:18:04.291Z,69.20
2018-10-12T00:20:32.858Z,69.20
2018-10-12T00:23:01.486Z,69.20
2018-10-12T00:25:30.040Z,69.70
2018-10-12T00:27:58.669Z,69.10
2018-10-12T00:30:27.193Z,69.20
2018-10-12T00:32:55.832Z,69.10
2018-10-12T00:35:24.375Z,69.10
2018-10-12T00:37:52.982Z,69.10
2018-10-12T00:40:21.545Z,69.10
2018-10-12T00:42:51.301Z,69.30
2018-10-12T00:45:19.813Z,69.30
2018-10-12T00:47:53.773Z,69.40
2018-10-12T00:50:22.297Z,69.40
2018-10-12T00:52:50.864Z,69.10
2018-10-12T00:55:19.390Z,69.40
2018-10-12T00:57:47.998Z,69.40
2018-10-12T01:00:16.726Z,69.30
2018-10-12T01:02:45.368Z,69.20
2018-10-12T01:05:13.978Z,69.40
2018-10-12T01:07:43.032Z,69.30
2018-10-12T01:10:12.483Z,69.00
2018-10-12T01:12:41.539Z,69.00
2018-10-12T01:15:11.062Z,69.10
2018-10-12T01:17:40.175Z,69.20
2018-10-12T01:20:10.444Z,69.20
2018-10-12T01:22:39.668Z,69.10
2018-10-12T01:25:08.976Z,69.00
2018-10-12T01:27:39.768Z,68.90
2018-10-12T01:30:08.807Z,68.80
2018-10-12T01:32:43.022Z,68.90
2018-10-12T01:35:13.092Z,68.80
2018-10-12T01:37:42.949Z,68.90
2018-10-12T01:40:11.733Z,68.90
2018-10-12T01:42:40.420Z,69.00
2018-10-12T01:45:09.141Z,69.10
2018-10-12T01:47:40.818Z,69.10
2018-10-12T01:50:15.469Z,69.00
2018-10-12T01:52:44.304Z,69.10
2018-10-12T01:55:15.044Z,69.10
2018-10-12T01:57:44.989Z,69.10
2018-10-12T02:00:14.525Z,69.10
2018-10-12T02:02:43.349Z,69.10
2018-10-12T02:05:11.934Z,69.10
2018-10-12T02:07:40.531Z,68.40
2018-10-12T02:10:09.242Z,69.00
2018-10-12T02:12:37.793Z,68.90
2018-10-12T02:15:06.523Z,68.90
2018-10-12T02:17:35.122Z,68.80
2018-10-12T02:20:03.691Z,68.80
2018-10-12T02:22:32.236Z,68.70
2018-10-12T02:25:00.775Z,68.60
2018-10-12T02:27:29.369Z,68.60
2018-10-12T02:29:57.951Z,68.80
2018-10-12T02:32:26.594Z,68.80
2018-10-12T02:34:55.106Z,68.80
2018-10-12T02:37:23.770Z,68.80
2018-10-12T02:39:52.301Z,68.90
2018-10-12T02:42:20.856Z,69.00
2018-10-12T02:44:49.403Z,69.00
2018-10-12T02:47:18.650Z,69.10
2018-10-12T02:49:47.211Z,69.10
2018-10-12T02:52:15.777Z,69.10
2018-10-12T02:54:44.313Z,69.10
2018-10-12T02:57:12.968Z,69.10
2018-10-12T02:59:41.508Z,69.10
2018-10-12T03:02:10.086Z,69.20
2018-10-12T03:04:38.608Z,69.30
2018-10-12T03:07:07.211Z,69.40
2018-10-12T03:09:35.779Z,69.30
2018-10-12T03:12:04.379Z,69.30
2018-10-12T03:14:32.921Z,69.30
2018-10-12T03:17:01.505Z,69.30
2018-10-12T03:19:30.026Z,69.30
2018-10-12T03:21:58.624Z,69.20
2018-10-12T03:24:27.152Z,69.20
2018-10-12T03:26:55.757Z,69.20
2018-10-12T03:29:24.530Z,69.10
2018-10-12T03:31:53.222Z,69.20
2018-10-12T03:34:21.854Z,69.30
2018-10-12T03:36:50.971Z,69.30
2018-10-12T03:39:19.646Z,69.30
2018-10-12T03:41:48.256Z,69.40
2018-10-12T03:44:16.844Z,69.40
2018-10-12T03:46:45.464Z,69.40
2018-10-12T03:49:14.108Z,69.40
2018-10-12T03:51:42.717Z,69.40
2018-10-12T03:54:11.478Z,69.40
2018-10-12T03:56:40.014Z,69.40
2018-10-12T03:59:08.605Z,69.50
2018-10-12T04:01:37.151Z,69.50
2018-10-12T04:04:05.780Z,69.60
2018-10-12T04:06:34.396Z,69.60
2018-10-12T04:09:03.616Z,69.70
2018-10-12T04:11:32.178Z,69.70
2018-10-12T04:14:00.844Z,69.70
2018-10-12T04:16:29.448Z,69.70
2018-10-12T04:18:57.993Z,69.70
2018-10-12T04:21:26.610Z,69.60
2018-10-12T04:23:55.124Z,69.60
2018-10-12T04:26:23.777Z,69.60
2018-10-12T04:28:52.540Z,69.50
2018-10-12T04:31:21.176Z,69.50
2018-10-12T04:33:49.887Z,70.30
2018-10-12T04:36:18.394Z,69.60
2018-10-12T04:38:58.236Z,69.60
2018-10-12T04:41:27.594Z,69.60
2018-10-12T04:44:00.540Z,69.50
2018-10-12T04:46:37.476Z,69.50
2018-10-12T04:49:08.232Z,69.50
2018-10-12T04:51:42.327Z,69.50
2018-10-12T04:54:11.258Z,69.50
2018-10-12T04:56:40.248Z,69.60
2018-10-12T04:59:08.823Z,69.70
2018-10-12T05:01:37.563Z,69.70
2018-10-12T05:04:06.290Z,70.60
2018-10-12T05:06:35.009Z,70.70
2018-10-12T05:09:05.400Z,70.50
2018-10-12T05:11:33.942Z,70.40
2018-10-12T05:14:02.483Z,70.40
2018-10-12T05:16:31.134Z,70.30
2018-10-12T05:18:59.704Z,70.30
2018-10-12T05:21:28.356Z,70.30
2018-10-12T05:24:13.602Z,70.30
2018-10-12T05:26:42.204Z,70.40
2018-10-12T05:29:10.848Z,70.40
2018-10-12T05:31:39.521Z,70.40
2018-10-12T05:34:08.216Z,70.40
2018-10-12T05:36:36.949Z,70.30
2018-10-12T05:39:08.687Z,70.30
2018-10-12T05:41:37.333Z,70.20
2018-10-12T05:44:05.887Z,70.10
2018-10-12T05:46:34.445Z,70.10
2018-10-12T05:49:14.192Z,70.00
2018-10-12T05:51:43.379Z,70.00
2018-10-12T05:54:12.228Z,70.00
2018-10-12T05:56:40.927Z,70.10
2018-10-12T05:59:09.565Z,69.90
2018-10-12T06:01:38.169Z,69.70
2018-10-12T06:04:06.788Z,69.40
2018-10-12T06:06:36.492Z,69.60
2018-10-12T06:09:07.259Z,69.30
2018-10-12T06:11:35.841Z,69.10
2018-10-12T06:14:04.421Z,69.10
2018-10-12T06:16:32.970Z,69.00
2018-10-12T06:19:01.724Z,69.20
2018-10-12T06:21:30.356Z,69.30
2018-10-12T06:23:58.928Z,69.50
2018-10-12T06:26:27.498Z,70.30
2018-10-12T06:28:56.164Z,69.50
2018-10-12T06:31:24.772Z,69.50
2018-10-12T06:33:53.621Z,69.50
2018-10-12T06:36:22.356Z,69.60
2018-10-12T06:38:51.020Z,69.60
2018-10-12T06:41:19.898Z,69.70
2018-10-12T06:43:48.580Z,69.90
2018-10-12T06:46:17.225Z,69.80
2018-10-12T06:48:45.752Z,69.80
2018-10-12T06:51:14.777Z,69.70
2018-10-12T06:53:43.532Z,69.80
2018-10-12T06:56:12.097Z,69.80
2018-10-12T06:58:40.622Z,69.80
2018-10-12T07:01:09.230Z,69.90
2018-10-12T07:03:37.947Z,69.80
2018-10-12T07:06:06.724Z,69.80
2018-10-12T07:08:35.541Z,69.80
2018-10-12T07:11:04.271Z,69.90
2018-10-12T07:13:33.033Z,70.00
2018-10-12T07:16:01.655Z,70.00
2018-10-12T07:18:30.193Z,70.10
2018-10-12T07:20:58.835Z,70.00
2018-10-12T07:23:27.504Z,70.00
2018-10-12T07:25:56.155Z,69.90
2018-10-12T07:28:24.831Z,70.00
2018-10-12T07:30:53.391Z,70.00
2018-10-12T07:33:22.071Z,70.00
2018-10-12T07:35:50.668Z,70.00
2018-10-12T07:38:19.276Z,70.00
2018-10-12T07:40:47.894Z,70.10
2018-10-12T07:43:16.436Z,70.00
2018-10-12T07:45:45.001Z,69.80
2018-10-12T07:48:13.574Z,69.90
2018-10-12T07:50:42.161Z,69.70
2018-10-12T07:53:10.919Z,69.70
2018-10-12T07:55:39.440Z,69.70
2018-10-12T07:58:08.044Z,69.60
2018-10-12T08:00:36.719Z,69.50
2018-10-12T08:03:05.214Z,69.50
2018-10-12T08:05:33.961Z,69.40
2018-10-12T08:08:02.511Z,69.50
2018-10-12T08:10:31.057Z,69.60
2018-10-12T08:12:59.698Z,69.50
2018-10-12T08:15:28.277Z,69.60
2018-10-12T08:17:56.925Z,69.60
2018-10-12T08:20:25.580Z,69.60
2018-10-12T08:22:54.210Z,69.50
2018-10-12T08:25:22.746Z,69.30
2018-10-12T08:27:51.328Z,69.30
2018-10-12T08:30:19.827Z,69.30
2018-10-12T08:32:48.489Z,69.30
2018-10-12T08:35:17.020Z,69.10
2018-10-12T08:37:45.572Z,69.10
2018-10-12T08:40:14.178Z,69.10
2018-10-12T08:42:42.734Z,68.90
2018-10-12T08:45:11.274Z,68.90
2018-10-12T08:47:39.786Z,68.90
2018-10-12T08:50:08.365Z,69.00
2018-10-12T08:52:36.895Z,69.10
2018-10-12T08:55:05.503Z,69.20
2018-10-12T08:57:34.075Z,69.20
2018-10-12T09:00:02.668Z,69.20
2018-10-12T09:02:31.222Z,69.10
2018-10-12T09:04:59.717Z,69.70
2018-10-12T09:07:28.499Z,69.20
2018-10-12T09:09:57.089Z,69.00
2018-10-12T09:12:25.592Z,69.20
2018-10-12T09:14:54.531Z,69.20
2018-10-12T09:17:23.630Z,69.10
2018-10-12T09:19:52.178Z,69.10
2018-10-12T09:22:20.724Z,69.10
2018-10-12T09:24:49.201Z,68.90
2018-10-12T09:27:17.813Z,69.00
2018-10-12T09:29:46.393Z,68.90
2018-10-12T09:32:14.933Z,69.00
2018-10-12T09:34:43.476Z,69.00
2018-10-12T09:37:12.010Z,68.90
2018-10-12T09:39:40.682Z,68.90
2018-10-12T09:42:09.203Z,68.90
2018-10-12T09:44:37.750Z,68.90
2018-10-12T09:47:06.353Z,69.00
2018-10-12T09:49:34.856Z,68.90
2018-10-12T09:52:03.413Z,68.90
2018-10-12T09:54:31.950Z,69.00
2018-10-12T09:57:05.801Z,68.90
2018-10-12T09:59:34.334Z,68.90
2018-10-12T10:02:08.309Z,68.90
2018-10-12T10:04:36.896Z,68.80
2018-10-12T10:07:05.575Z,68.70
2018-10-12T10:09:34.123Z,68.70
2018-10-12T10:12:02.732Z,68.70
2018-10-12T10:14:31.316Z,68.70
2018-10-12T10:16:59.928Z,68.60
2018-10-12T10:19:28.643Z,68.60
2018-10-12T10:21:57.206Z,68.50
2018-10-12T10:24:25.691Z,68.40
2018-10-12T10:26:54.351Z,68.40
2018-10-12T10:29:22.957Z,68.40
2018-10-12T10:31:51.503Z,68.50
2018-10-12T10:34:20.093Z,68.30
2018-10-12T10:36:48.670Z,68.20
2018-10-12T10:39:17.243Z,68.20
2018-10-12T10:41:45.801Z,68.20
2018-10-12T10:44:14.307Z,68.10
2018-10-12T10:46:42.847Z,68.10
2018-10-12T10:49:11.371Z,68.20
2018-10-12T10:51:39.935Z,68.10
2018-10-12T10:54:08.435Z,68.00
2018-10-12T10:56:36.949Z,67.90
2018-10-12T10:59:05.482Z,67.90
2018-10-12T11:01:34.014Z,67.80
2018-10-12T11:04:02.545Z,67.80
2018-10-12T11:06:31.188Z,67.60
2018-10-12T11:08:59.708Z,67.50
2018-10-12T11:11:28.284Z,67.50
2018-10-12T11:13:56.818Z,67.50
2018-10-12T11:16:25.420Z,67.40
2018-10-12T11:18:53.996Z,67.40
2018-10-12T11:21:22.629Z,67.20
2018-10-12T11:23:51.224Z,67.20
2018-10-12T11:26:19.825Z,67.10
2018-10-12T11:28:48.458Z,67.10
2018-10-12T11:31:17.025Z,67.20
2018-10-12T11:33:45.605Z,67.00
2018-10-12T11:36:14.247Z,67.00
2018-10-12T11:38:42.818Z,66.90
2018-10-12T11:41:11.474Z,66.90
2018-10-12T11:43:40.721Z,66.90
2018-10-12T11:46:09.334Z,66.90
2018-10-12T11:48:37.936Z,66.80
2018-10-12T11:51:06.601Z,66.70
2018-10-12T11:53:35.146Z,66.60
2018-10-12T11:56:03.761Z,66.50
2018-10-12T11:58:32.311Z,66.30
2018-10-12T12:01:01.008Z,66.20
2018-10-12T12:03:29.591Z,66.10
2018-10-12T12:05:58.214Z,66.10
2018-10-12T12:08:28.479Z,66.20
2018-10-12T12:10:57.092Z,66.10
2018-10-12T12:13:25.644Z,66.20
2018-10-12T12:15:54.290Z,66.30
2018-10-12T12:18:22.849Z,66.00
2018-10-12T12:20:51.428Z,65.80
2018-10-12T12:23:20.085Z,65.80
2018-10-12T12:25:48.655Z,65.90
2018-10-12T12:28:17.284Z,66.10
2018-10-12T12:30:45.878Z,66.00
2018-10-12T12:33:14.659Z,66.10
2018-10-12T12:35:43.614Z,66.00
2018-10-12T12:38:11.875Z,65.90
2018-10-12T12:40:40.518Z,65.90
2018-10-12T12:43:09.071Z,65.90
2018-10-12T12:45:37.691Z,65.80
2018-10-12T12:48:06.475Z,65.70
2018-10-12T12:50:35.052Z,65.70
2018-10-12T12:53:03.982Z,65.60
2018-10-12T12:55:32.680Z,65.60
2018-10-12T12:58:01.337Z,65.60
2018-10-12T13:00:30.064Z,65.60
2018-10-12T13:02:59.351Z,65.60
2018-10-12T13:05:28.594Z,65.40
2018-10-12T13:08:01.841Z,65.30
2018-10-12T13:10:30.627Z,66.10
2018-10-12T13:12:59.794Z,65.20
2018-10-12T13:15:28.621Z,65.00
2018-10-12T13:18:02.011Z,64.90
2018-10-12T13:20:30.909Z,64.80
2018-10-12T13:23:01.511Z,64.80
2018-10-12T13:25:30.663Z,64.70
2018-10-12T13:28:00.699Z,64.80
2018-10-12T13:30:29.775Z,64.70
2018-10-12T13:33:01.048Z,64.60
2018-10-12T13:35:30.896Z,64.50
2018-10-12T13:38:03.397Z,64.40
2018-10-12T13:40:37.088Z,64.30
2018-10-12T13:43:05.706Z,64.20
2018-10-12T13:45:37.836Z,64.00
2018-10-12T13:48:06.916Z,63.80
2018-10-12T13:53:47.676Z,63.80
2018-10-12T13:56:16.680Z,63.80
2018-10-12T13:58:49.357Z,63.80
2018-10-12T14:01:22.382Z,63.80
2018-10-12T14:03:51.213Z,63.80
2018-10-12T14:06:22.317Z,63.80
2018-10-12T14:08:51.233Z,63.60
2018-10-12T14:11:22.515Z,63.60
2018-10-12T14:13:51.479Z,63.60
2018-10-12T14:16:23.851Z,63.70
2018-10-12T14:18:53.109Z,63.40
2018-10-12T14:21:21.772Z,63.20
2018-10-12T14:23:52.574Z,63.20
2018-10-12T14:26:21.369Z,63.00
2018-10-12T14:28:54.080Z,63.10
2018-10-12T14:31:22.903Z,63.10
2018-10-12T14:33:53.826Z,63.00
2018-10-12T14:36:23.098Z,63.00
2018-10-12T14:38:53.779Z,63.00
2018-10-12T14:41:22.514Z,63.00
2018-10-12T14:43:51.737Z,62.30
2018-10-12T14:46:20.563Z,63.00
2018-10-12T14:48:50.174Z,63.10
2018-10-12T14:51:19.073Z,63.30
2018-10-12T14:53:48.255Z,63.40
2018-10-12T14:56:16.944Z,63.30
2018-10-12T14:58:45.844Z,63.20
2018-10-12T15:01:14.430Z,63.30
2018-10-12T15:03:43.098Z,64.10
2018-10-12T15:06:12.462Z,63.20
2018-10-12T15:08:44.790Z,63.30
2018-10-12T15:11:15.979Z,63.20
2018-10-12T15:13:47.693Z,62.60
2018-10-12T15:16:16.632Z,62.60
2018-10-12T15:18:48.782Z,62.60
2018-10-12T15:21:19.868Z,62.70
2018-10-12T15:23:48.937Z,63.20
2018-10-12T15:26:17.671Z,63.10
2018-10-12T15:28:48.321Z,63.00
2018-10-12T15:31:18.754Z,63.10
2018-10-12T15:33:47.335Z,63.40
2018-10-12T15:36:15.881Z,63.30
2018-10-12T15:38:45.438Z,63.20
2018-10-12T15:41:14.042Z,63.30
2018-10-12T15:43:42.666Z,63.40
2018-10-12T15:46:11.789Z,63.30
2018-10-12T15:48:40.379Z,63.40
2018-10-12T15:51:09.327Z,63.50
2018-10-12T15:53:38.296Z,63.60
2018-10-12T15:56:07.492Z,63.60
2018-10-12T15:58:36.147Z,63.70
2018-10-12T16:01:04.696Z,63.80
2018-10-12T16:03:33.283Z,64.00
2018-10-12T16:06:02.517Z,64.00
2018-10-12T16:08:31.700Z,64.10
2018-10-12T16:11:02.272Z,64.20
2018-10-12T16:13:32.753Z,64.30
2018-10-12T16:16:02.308Z,64.50
2018-10-12T16:18:32.855Z,64.60
2018-10-12T16:21:01.926Z,65.40
2018-10-12T16:23:30.476Z,64.80
2018-10-12T16:26:12.344Z,64.90
2018-10-12T16:28:40.931Z,65.00
2018-10-12T16:31:09.565Z,65.10
2018-10-12T16:33:38.253Z,65.20
2018-10-12T16:36:06.972Z,65.50
2018-10-12T16:38:35.763Z,65.80
2018-10-12T16:41:04.497Z,65.60
2018-10-12T16:43:34.596Z,65.60
2018-10-12T16:46:03.359Z,65.70
2018-10-12T16:48:32.016Z,65.80
2018-10-12T16:51:00.664Z,66.00
2018-10-12T16:53:29.343Z,66.10
2018-10-12T16:55:57.992Z,66.20
2018-10-12T16:58:26.681Z,66.20
2018-10-12T17:00:55.211Z,66.30
2018-10-12T17:03:23.778Z,67.20
2018-10-12T17:05:52.523Z,67.30
2018-10-12T17:08:21.142Z,67.30
2018-10-12T17:10:49.673Z,67.30
2018-10-12T17:13:18.325Z,67.30
2018-10-12T17:15:47.066Z,67.30
2018-10-12T17:18:15.872Z,68.10
2018-10-12T17:20:44.568Z,67.40
2018-10-12T17:23:13.118Z,67.60
2018-10-12T17:25:41.978Z,67.50
2018-10-12T17:28:10.645Z,67.60
2018-10-12T17:30:39.321Z,67.70
2018-10-12T17:33:09.828Z,67.70
2018-10-12T17:35:38.461Z,67.80
2018-10-12T17:38:07.129Z,67.90
2018-10-12T17:40:35.797Z,67.90
2018-10-12T17:43:05.420Z,67.90
2018-10-12T17:45:33.949Z,68.00
2018-10-12T17:48:02.508Z,68.20
2018-10-12T17:50:31.068Z,68.10
2018-10-12T17:52:59.689Z,68.20
2018-10-12T17:55:28.268Z,68.30
2018-10-12T17:57:56.857Z,68.40
2018-10-12T18:00:25.500Z,68.50
2018-10-12T18:02:54.171Z,68.50
2018-10-12T18:05:22.743Z,68.50
2018-10-12T18:07:52.876Z,68.70
2018-10-12T18:10:21.552Z,68.80
2018-10-12T18:12:50.245Z,68.90
2018-10-12T18:15:18.839Z,69.00
2018-10-12T18:17:47.406Z,69.00
2018-10-12T18:20:16.804Z,68.90
2018-10-12T18:22:46.333Z,68.90
2018-10-12T18:25:15.872Z,68.90
2018-10-12T18:27:46.669Z,68.90
2018-10-12T18:30:16.275Z,68.80
2018-10-12T18:32:45.723Z,68.80
2018-10-12T18:35:15.412Z,68.80
2018-10-12T18:37:44.121Z,68.90
2018-10-12T18:40:12.747Z,69.00
2018-10-12T18:42:41.380Z,69.10
2018-10-12T18:45:10.167Z,69.10
2018-10-12T18:47:39.064Z,69.20
2018-10-12T18:50:07.992Z,69.20
2018-10-12T18:52:37.731Z,69.20
2018-10-12T18:55:06.729Z,69.40
2018-10-12T18:57:36.522Z,69.30
2018-10-12T19:00:07.592Z,69.40
2018-10-12T19:02:37.152Z,68.80
2018-10-12T19:05:06.825Z,69.60
2018-10-12T19:07:35.650Z,69.60
2018-10-12T19:10:05.005Z,69.70
2018-10-12T19:12:33.641Z,69.60
2018-10-12T19:15:02.673Z,69.70
2018-10-12T19:17:31.269Z,69.80
2018-10-12T19:20:00.415Z,69.80
2018-10-12T19:22:29.381Z,69.80
2018-10-12T19:24:58.206Z,69.70
2018-10-12T19:27:27.203Z,69.70
2018-10-12T19:29:55.839Z,69.80
2018-10-12T19:32:24.415Z,69.70
2018-10-12T19:34:53.070Z,69.70
2018-10-12T19:37:21.575Z,70.50
2018-10-12T19:39:50.164Z,69.70
2018-10-12T19:42:18.828Z,69.40
2018-10-12T19:44:47.387Z,69.50
2018-10-12T19:47:16.038Z,69.30
2018-10-12T19:49:44.737Z,69.00
2018-10-12T19:52:14.537Z,69.10
2018-10-12T19:54:43.132Z,69.20
2018-10-12T19:57:12.062Z,69.10
2018-10-12T19:59:42.841Z,68.90
2018-10-12T20:02:13.531Z,68.80
2018-10-12T20:04:45.131Z,68.60
2018-10-12T20:07:14.746Z,68.50
2018-10-12T20:09:45.476Z,68.40
2018-10-12T20:12:14.391Z,68.40
2018-10-12T20:14:43.733Z,68.30
2018-10-12T20:17:14.324Z,68.30
2018-10-12T20:19:44.126Z,68.20
2018-10-12T20:22:16.248Z,68.10
2018-10-12T20:24:45.362Z,68.10
2018-10-12T20:27:16.772Z,67.90
2018-10-12T20:29:45.614Z,67.80
2018-10-12T20:32:15.381Z,67.70
2018-10-12T20:34:45.381Z,67.90
2018-10-12T20:37:16.670Z,67.80
2018-10-12T20:39:46.687Z,67.90
2018-10-12T20:42:15.813Z,68.20
2018-10-12T20:44:44.922Z,67.70
2018-10-12T20:47:15.700Z,67.70
2018-10-12T20:49:45.378Z,67.80
2018-10-12T20:52:15.142Z,67.70
2018-10-12T20:54:45.599Z,67.60
2018-10-12T20:57:15.230Z,67.50
2018-10-12T20:59:45.179Z,67.50
2018-10-12T21:02:15.153Z,67.50
2018-10-12T21:04:46.088Z,67.50
2018-10-12T21:07:15.492Z,67.50
2018-10-12T21:09:45.227Z,67.40
2018-10-12T21:12:14.821Z,67.50
2018-10-12T21:14:44.348Z,67.40
2018-10-12T21:17:13.474Z,67.40
2018-10-12T21:19:42.539Z,67.40
2018-10-12T21:22:11.085Z,67.30
2018-10-12T21:24:39.660Z,67.30
2018-10-12T21:27:10.536Z,67.30
2018-10-12T21:29:39.156Z,67.30
2018-10-12T21:32:09.556Z,67.60
2018-10-12T21:34:38.369Z,67.30
2018-10-12T21:37:06.946Z,67.40
2018-10-12T21:39:35.586Z,67.30
2018-10-12T21:42:04.108Z,67.30
2018-10-12T21:44:32.688Z,67.30
2018-10-12T21:47:01.240Z,67.30
2018-10-12T21:49:29.785Z,67.80
2018-10-12T21:51:58.314Z,67.00
2018-10-12T21:54:26.845Z,67.00
2018-10-12T21:56:55.365Z,67.00
2018-10-12T21:59:23.905Z,67.00
2018-10-12T22:01:52.485Z,66.90
2018-10-12T22:04:21.021Z,67.00
2018-10-12T22:07:01.078Z,66.90
2018-10-12T22:09:29.883Z,66.80
2018-10-12T22:11:58.390Z,66.60
2018-10-12T22:14:27.912Z,66.60
2018-10-12T22:16:57.324Z,66.70
2018-10-12T22:19:25.917Z,66.70
2018-10-12T22:21:56.221Z,66.70
2018-10-12T22:24:24.763Z,66.70
2018-10-12T22:26:53.457Z,66.70
2018-10-12T22:29:22.113Z,66.70
2018-10-12T22:31:50.769Z,66.70
2018-10-12T22:34:19.474Z,66.70
2018-10-12T22:36:48.211Z,66.60
2018-10-12T22:39:16.955Z,66.80
2018-10-12T22:41:45.545Z,66.80
2018-10-12T22:44:14.392Z,66.70
2018-10-12T22:46:43.188Z,66.70
2018-10-12T22:49:12.057Z,66.70
2018-10-12T22:51:40.762Z,66.70
2018-10-12T22:54:09.573Z,67.00
2018-10-12T22:56:38.357Z,66.80
2018-10-12T22:59:07.663Z,67.00
2018-10-12T23:01:36.414Z,67.00
2018-10-12T23:04:05.138Z,67.00
2018-10-12T23:06:33.745Z,67.00
2018-10-12T23:09:02.635Z,67.00
2018-10-12T23:11:31.213Z,67.00
2018-10-12T23:13:59.797Z,67.00
2018-10-12T23:16:28.613Z,67.00
2018-10-12T23:18:57.274Z,67.10
2018-10-12T23:21:26.078Z,67.10
2018-10-12T23:23:54.776Z,67.00
2018-10-12T23:26:23.412Z,67.00
2018-10-12T23:28:52.189Z,67.00
2018-10-12T23:31:20.808Z,67.00
2018-10-12T23:34:01.053Z,67.00
2018-10-12T23:36:30.065Z,67.10
2018-10-12T23:38:59.083Z,67.20
2018-10-12T23:41:28.027Z,67.70
2018-10-12T23:43:57.144Z,67.30
2018-10-12T23:46:26.120Z,67.30
2018-10-12T23:48:54.804Z,67.30
2018-10-12T23:51:23.426Z,67.30
2018-10-12T23:53:52.083Z,67.30
2018-10-12T23:56:20.710Z,67.40
2018-10-12T23:58:49.249Z,67.40
